RAAF Base Curtin
YCIN : now visible

Airfield :











YOU CAN JOIN US ON...

 
LOGIN :

Register | Disclaimer

   EN    FR    IT 

 









Legend :    VFR   Marginal VFR   IFR   Intensive IFR   Very Intensive IFR
Visi :
Ceiling :
>= 8 km
>= 3000ft
5 to 8 km
1000 to 3000 ft
1500m to 5 km
500 to 1000 ft
800 to 1500m
200 to 500 ft
< 800m
< 200 ft
Symbols :   Thunderstorms  Fog  Heavy snow  Heavy precipitations  Wind > 20 kt






- Airport Elevation : 300 ft


YCIN - RAAF Base Curtin

CURRENT METAR :
  • 071500Z AUTO 14007KT 9999 // NCD 21/M02 Q1015

EXPIRED METARs :
  • 071430Z AUTO 14007KT 9999 // NCD 21/M01 Q1015 RF00.0/000.0
  • 071400Z AUTO 13008KT 9999 // NCD 22/M02 Q1015
  • 071330Z AUTO 14009KT 9999 // NCD 22/M01 Q1015 RF00.0/000.0
  • 071300Z AUTO 15009KT 9999 // NCD 22/M01 Q1015
  • 071230Z AUTO 15009KT 9999 // NCD 22/M01 Q1015 RF00.0/000.0

TAF TAF YCIN
Valid from the 07 at 14:00 until the 08 at 02:00 UTC


071249Z 0714/0802 13008KT CAVOK
FM080100 09011KT CAVOK
YBBB FIR / Oceania



MET'MAP, your aeronautical weather chart ! - Copyright ORBIFLY December 2007 - Disclaimer

ORBIFLY MET'MAP TEAM :

Programming & Development : Alexandra Zaïnal
Concept & original design : Baudouin d'Aumeries
Assistance for programming : Marc-Olivier Méhu
Technical & hardware support : Manuel Goepfert

Contact : metmap@orbifly.com




SOURCES & CREDITS :

   NOAA       Earth
Advisory